• Join FlightAware (Why Join?)
  • Login
  • US Flag 
10:38AM EDT


 

Airport Tracker/Info


-or-


 

Live Flight TrackerFlight Track Log ✈ CSN3233 ✈ 16-Sep-2013 ✈ ZGKL / KWL - ZGGG / CAN

Flight Track Log - Related Links

Times and Time Zones

All times are in EDT time to prevent confusion due to time zone crossing. See the CSN3233 flight status page for this flight to view local times or setup timezone preferences in your user account.

Time Position Orientation Groundspeed Altitude Reporting Facility
EDT Latitude Longitude Course Direction KTS MPH feet Rate Location/Type
09:27AM 25.1604 110.1458 121° Southeast  Level Estimated
09:28AM 25.1025 110.2522 121° Southeast  Level Estimated
09:29AM 25.0446 110.3586 121° Southeast  Level Estimated
09:30AM 24.9867 110.4648 121° Southeast  Level Estimated
09:31AM 24.9286 110.5710 121° Southeast  Level Estimated
09:32AM 24.8705 110.6771 121° Southeast  Level Estimated
09:33AM 24.8123 110.7830 121° Southeast  Level Estimated
09:34AM 24.7540 110.8889 121° Southeast  Level Estimated
09:35AM 24.6956 110.9946 121° Southeast  Level Estimated
09:36AM 24.6372 111.1003 121° Southeast  Level Estimated
09:37AM 24.5787 111.2059 121° Southeast  Level Estimated
09:38AM 24.5201 111.3113 121° Southeast  Level Estimated
09:39AM 24.4615 111.4167 121° Southeast  Level Estimated
09:40AM 24.4028 111.5219 121° Southeast  Level Estimated
09:41AM 24.3440 111.6271 122° Southeast  Level Estimated
09:42AM 24.2851 111.7322 122° Southeast  Level Estimated
09:43AM 24.2262 111.8372 122° Southeast  Level Estimated
09:44AM 24.1672 111.9420 122° Southeast  Level Estimated
09:45AM 24.1081 112.0468 122° Southeast  Level Estimated
09:46AM 24.0489 112.1515 122° Southeast  Level Estimated
09:47AM 23.9897 112.2561 122° Southeast  Level Estimated
09:48AM 23.9304 112.3606 122° Southeast  Level Estimated
09:49AM 23.8711 112.4650 122° Southeast  Level Estimated
09:50AM 23.8116 112.5693 122° Southeast  Level Estimated
09:51AM 23.7521 112.6735 122° Southeast  Level Estimated
09:52AM 23.6926 112.7776 122° Southeast  Level Estimated
09:53AM 23.6329 112.8816 122° Southeast  Level Estimated
09:54AM 23.5732 112.9855 122° Southeast  Level Estimated
09:55AM 23.5134 113.0893 122° Southeast  Level Estimated
09:56AM 23.4536 113.1930 122° Southeast  Level Estimated
09:57AM 23.3937 113.2967 122° Southeast  Level Estimated
09:58AM 23.3924 113.2988 122° Southeast  Level Estimated
09:59AM 23.3924 113.2988 223° Southwest  Level Estimated
10:00AM 23.3924 113.2988 223° Southwest  Level Estimated
10:01AM 23.3924 113.2988 223° Southwest  Level Estimated
10:02AM 23.3924 113.2988 223° Southwest  Level Estimated
10:03AM 23.3924 113.2988 223° Southwest  Level Estimated
10:04AM 23.3924 113.2988 223° Southwest  Level Estimated
10:05AM 23.3924 113.2988 223° Southwest  Level Estimated
10:06AM 23.3924 113.2988 223° Southwest  Level Estimated
10:07AM 23.3924 113.2988 223° Southwest  Level Estimated
10:08AM 23.3924 113.2988 223° Southwest  Level Estimated
10:09AM 23.3924 113.2988 223° Southwest  Level Estimated
10:10AM 23.3924 113.2988 223° Southwest  Level Estimated
10:11AM 23.3924 113.2988 223° Southwest  Level Estimated
10:12AM 23.3924 113.2988 223° Southwest  Level Estimated